sensor_id;sensor_type;location;lat;lon;timestamp;pressure;altitude;pressure_sealevel;temperature;humidity
8451;BME280;4262;50.980;13.892;2023-03-01T04:32:21;50245.91;;;-142.97;24.59
8451;BME280;4262;50.980;13.892;2023-03-01T04:34:48;50232.25;;;-142.97;24.24
8451;BME280;4262;50.980;13.892;2023-03-01T04:37:15;50234.19;;;-142.97;24.46
8451;BME280;4262;50.980;13.892;2023-03-01T04:39:43;50193.25;;;-142.97;24.08
8451;BME280;4262;50.980;13.892;2023-03-01T04:42:11;50257.59;;;-142.97;24.06
8451;BME280;4262;50.980;13.892;2023-03-01T04:44:37;50226.41;;;-142.97;24.14
8451;BME280;4262;50.980;13.892;2023-03-01T04:47:04;50251.75;;;-142.97;24.46
8451;BME280;4262;50.980;13.892;2023-03-01T04:49:32;50236.16;;;-142.97;24.58
8451;BME280;4262;50.980;13.892;2023-03-01T04:51:59;50245.91;;;-142.97;24.58
8451;BME280;4262;50.980;13.892;2023-03-01T04:54:27;50226.41;;;-142.97;24.34
8451;BME280;4262;50.980;13.892;2023-03-01T04:56:54;50238.09;;;-142.97;24.62
8451;BME280;4262;50.980;13.892;2023-03-01T04:59:20;50249.81;;;-142.97;24.35
8451;BME280;4262;50.980;13.892;2023-03-01T05:01:47;50193.25;;;-142.97;24.67
8451;BME280;4262;50.980;13.892;2023-03-01T05:04:14;50251.75;;;-142.97;24.55
8451;BME280;4262;50.980;13.892;2023-03-01T05:06:43;50212.75;;;-142.97;24.93
8451;BME280;4262;50.980;13.892;2023-03-01T05:09:10;50214.72;;;-142.97;24.55
8451;BME280;4262;50.980;13.892;2023-03-01T05:11:37;50234.19;;;-142.97;24.58
8451;BME280;4262;50.980;13.892;2023-03-01T05:14:05;50216.66;;;-142.97;24.72
8451;BME280;4262;50.980;13.892;2023-03-01T05:16:34;50240.06;;;-142.97;25.12
8451;BME280;4262;50.980;13.892;2023-03-01T05:19:02;50238.09;;;-142.97;25.22
8451;BME280;4262;50.980;13.892;2023-03-01T05:21:37;50269.28;;;-142.97;24.99
8451;BME280;4262;50.980;13.892;2023-03-01T05:24:25;50234.19;;;-142.97;24.64
8451;BME280;4262;50.980;13.892;2023-03-01T05:26:53;50249.81;;;-142.97;24.43
8451;BME280;4262;50.980;13.892;2023-03-01T05:29:20;50253.69;;;-142.97;24.20
8451;BME280;4262;50.980;13.892;2023-03-01T05:31:51;50224.47;;;-142.97;24.48
8451;BME280;4262;50.980;13.892;2023-03-01T05:34:18;50224.47;;;-142.97;24.21
8451;BME280;4262;50.980;13.892;2023-03-01T05:36:48;50247.84;;;-142.97;24.21
8451;BME280;4262;50.980;13.892;2023-03-01T05:39:16;50238.09;;;-142.97;24.18
8451;BME280;4262;50.980;13.892;2023-03-01T05:41:44;50232.25;;;-142.97;24.16
8451;BME280;4262;50.980;13.892;2023-03-01T05:44:11;50249.81;;;-142.97;25.08
8451;BME280;4262;50.980;13.892;2023-03-01T05:46:41;50238.09;;;-142.97;24.95
8451;BME280;4262;50.980;13.892;2023-03-01T05:49:07;50243.94;;;-142.97;24.83
8451;BME280;4262;50.980;13.892;2023-03-01T05:51:53;50230.31;;;-142.97;24.72
8451;BME280;4262;50.980;13.892;2023-03-01T05:54:20;50259.56;;;-142.97;24.41
8451;BME280;4262;50.980;13.892;2023-03-01T05:56:49;50234.19;;;-142.97;24.23
8451;BME280;4262;50.980;13.892;2023-03-01T05:59:16;50249.81;;;-142.97;24.55
8451;BME280;4262;50.980;13.892;2023-03-01T06:01:42;50245.91;;;-142.97;24.64
8451;BME280;4262;50.980;13.892;2023-03-01T06:04:09;50247.84;;;-142.97;24.70
8451;BME280;4262;50.980;13.892;2023-03-01T06:06:37;50271.25;;;-142.97;24.54
8451;BME280;4262;50.980;13.892;2023-03-01T06:09:04;50249.81;;;-142.97;24.40
8451;BME280;4262;50.980;13.892;2023-03-01T06:11:33;50197.16;;;-142.97;24.80
8451;BME280;4262;50.980;13.892;2023-03-01T06:14:03;50255.66;;;-142.97;24.62
8451;BME280;4262;50.980;13.892;2023-03-01T06:16:33;50240.06;;;-142.97;24.69
8451;BME280;4262;50.980;13.892;2023-03-01T06:19:00;50245.91;;;-142.97;24.89
8451;BME280;4262;50.980;13.892;2023-03-01T06:21:26;50220.56;;;-142.97;24.37
8451;BME280;4262;50.980;13.892;2023-03-01T06:23:53;50238.09;;;-142.97;24.46
8451;BME280;4262;50.980;13.892;2023-03-01T06:26:20;50230.31;;;-142.97;23.92
8451;BME280;4262;50.980;13.892;2023-03-01T06:28:46;50230.31;;;-142.97;23.95
8451;BME280;4262;50.980;13.892;2023-03-01T06:31:32;50263.44;;;-142.97;24.24
8451;BME280;4262;50.980;13.892;2023-03-01T06:34:00;50224.47;;;-142.97;24.26
8451;BME280;4262;50.980;13.892;2023-03-01T06:36:26;50259.56;;;-142.97;24.26
8451;BME280;4262;50.980;13.892;2023-03-01T06:38:53;50218.59;;;-142.97;24.55
8451;BME280;4262;50.980;13.892;2023-03-01T06:41:19;50240.06;;;-142.97;23.71
8451;BME280;4262;50.980;13.892;2023-03-01T06:43:46;50261.50;;;-142.97;23.76
8451;BME280;4262;50.980;13.892;2023-03-01T06:46:13;50243.94;;;-142.97;23.80
8451;BME280;4262;50.980;13.892;2023-03-01T06:48:41;50261.50;;;-142.97;23.69
8451;BME280;4262;50.980;13.892;2023-03-01T06:51:07;50249.81;;;-142.97;23.64
8451;BME280;4262;50.980;13.892;2023-03-01T06:53:34;50261.50;;;-142.97;23.74
8451;BME280;4262;50.980;13.892;2023-03-01T06:56:00;50228.34;;;-142.97;24.02
8451;BME280;4262;50.980;13.892;2023-03-01T06:58:27;50222.50;;;-142.97;23.98
8451;BME280;4262;50.980;13.892;2023-03-01T07:00:53;50249.81;;;-142.97;24.00
8451;BME280;4262;50.980;13.892;2023-03-01T07:03:20;50222.50;;;-142.97;24.29
8451;BME280;4262;50.980;13.892;2023-03-01T07:05:50;50232.25;;;-142.97;24.58
8451;BME280;4262;50.980;13.892;2023-03-01T07:08:17;50253.69;;;-142.97;24.46
8451;BME280;4262;50.980;13.892;2023-03-01T07:10:44;50265.41;;;-142.97;24.66
8451;BME280;4262;50.980;13.892;2023-03-01T07:13:13;50255.66;;;-142.97;24.72
8451;BME280;4262;50.980;13.892;2023-03-01T07:15:40;50255.66;;;-142.97;24.46
8451;BME280;4262;50.980;13.892;2023-03-01T07:18:06;50247.84;;;-142.97;23.81
8451;BME280;4262;50.980;13.892;2023-03-01T07:20:33;50232.25;;;-142.97;24.07
8451;BME280;4262;50.980;13.892;2023-03-01T07:23:02;50257.59;;;-142.97;24.00
8451;BME280;4262;50.980;13.892;2023-03-01T07:25:29;50234.19;;;-142.97;23.98
8451;BME280;4262;50.980;13.892;2023-03-01T07:27:55;50214.72;;;-142.97;23.66
8451;BME280;4262;50.980;13.892;2023-03-01T07:30:23;50232.25;;;-142.97;23.95
8451;BME280;4262;50.980;13.892;2023-03-01T07:32:52;50236.16;;;-142.97;24.32
8451;BME280;4262;50.980;13.892;2023-03-01T07:35:19;50261.50;;;-142.97;24.09
8451;BME280;4262;50.980;13.892;2023-03-01T07:37:46;50242.00;;;-142.97;23.88
8451;BME280;4262;50.980;13.892;2023-03-01T07:40:14;50220.56;;;-142.97;24.49
8451;BME280;4262;50.980;13.892;2023-03-01T07:42:42;50234.19;;;-142.97;23.54
8451;BME280;4262;50.980;13.892;2023-03-01T07:45:10;50154.28;;;-142.97;22.87
8451;BME280;4262;50.980;13.892;2023-03-01T07:47:38;50169.88;;;-142.97;22.16
8451;BME280;4262;50.980;13.892;2023-03-01T07:50:05;50162.06;;;-142.97;21.62
8451;BME280;4262;50.980;13.892;2023-03-01T07:52:34;50126.97;;;-142.97;21.33
8451;BME280;4262;50.980;13.892;2023-03-01T07:55:00;50126.97;;;-142.97;20.99
8451;BME280;4262;50.980;13.892;2023-03-01T07:57:28;50146.47;;;-142.97;20.85
8451;BME280;4262;50.980;13.892;2023-03-01T07:59:55;50115.28;;;-142.97;20.96
8451;BME280;4262;50.980;13.892;2023-03-01T08:02:22;50140.63;;;-142.97;20.38
8451;BME280;4262;50.980;13.892;2023-03-01T08:04:48;50125.03;;;-142.97;20.30
8451;BME280;4262;50.980;13.892;2023-03-01T08:07:15;50140.63;;;-142.97;20.08
8451;BME280;4262;50.980;13.892;2023-03-01T08:09:42;50117.22;;;-142.97;19.57
8451;BME280;4262;50.980;13.892;2023-03-01T08:12:11;50123.06;;;-142.97;19.64
8451;BME280;4262;50.980;13.892;2023-03-01T08:14:39;50095.78;;;-142.97;19.59
8451;BME280;4262;50.980;13.892;2023-03-01T08:17:07;50136.72;;;-142.97;20.54
8451;BME280;4262;50.980;13.892;2023-03-01T08:19:34;50103.59;;;-142.97;19.94
8451;BME280;4262;50.980;13.892;2023-03-01T08:22:01;50091.88;;;-142.97;19.76
8451;BME280;4262;50.980;13.892;2023-03-01T08:24:30;50097.72;;;-142.97;19.84
8451;BME280;4262;50.980;13.892;2023-03-01T08:26:56;50121.13;;;-142.97;19.41
8451;BME280;4262;50.980;13.892;2023-03-01T08:29:23;50078.25;;;-142.97;19.38
8451;BME280;4262;50.980;13.892;2023-03-01T08:31:51;50086.03;;;-142.97;18.92
8451;BME280;4262;50.980;13.892;2023-03-01T08:34:18;50132.81;;;-142.97;18.83
8451;BME280;4262;50.980;13.892;2023-03-01T08:36:46;50115.28;;;-142.97;18.78
8451;BME280;4262;50.980;13.892;2023-03-01T08:39:14;50128.94;;;-142.97;19.07
8451;BME280;4262;50.980;13.892;2023-03-01T08:41:41;50101.63;;;-142.97;19.01
8451;BME280;4262;50.980;13.892;2023-03-01T08:44:11;50103.59;;;-142.97;19.36
8451;BME280;4262;50.980;13.892;2023-03-01T08:46:40;50132.81;;;-142.97;19.33
8451;BME280;4262;50.980;13.892;2023-03-01T08:49:11;50099.69;;;-142.97;18.82
8451;BME280;4262;50.980;13.892;2023-03-01T08:51:38;50111.38;;;-142.97;18.88
8451;BME280;4262;50.980;13.892;2023-03-01T08:54:09;50107.47;;;-142.97;19.02
8451;BME280;4262;50.980;13.892;2023-03-01T08:56:38;50066.53;;;-142.97;19.03
8451;BME280;4262;50.980;13.892;2023-03-01T08:59:05;50084.09;;;-142.97;18.54
8451;BME280;4262;50.980;13.892;2023-03-01T09:01:33;50091.88;;;-142.97;18.80
8451;BME280;4262;50.980;13.892;2023-03-01T09:04:00;50060.69;;;-142.97;18.83
8451;BME280;4262;50.980;13.892;2023-03-01T09:06:29;50086.03;;;-142.97;19.17
8451;BME280;4262;50.980;13.892;2023-03-01T09:08:57;50049.00;;;-142.97;19.20
8451;BME280;4262;50.980;13.892;2023-03-01T09:11:23;50052.91;;;-142.97;19.29
8451;BME280;4262;50.980;13.892;2023-03-01T09:13:51;50047.03;;;-142.97;18.77
8451;BME280;4262;50.980;13.892;2023-03-01T09:16:20;50058.75;;;-142.97;19.14
8451;BME280;4262;50.980;13.892;2023-03-01T09:18:49;50049.00;;;-142.97;18.38
8451;BME280;4262;50.980;13.892;2023-03-01T09:21:16;50050.94;;;-142.97;18.56
8451;BME280;4262;50.980;13.892;2023-03-01T09:23:46;50060.69;;;-142.97;18.76
8451;BME280;4262;50.980;13.892;2023-03-01T09:26:16;50056.78;;;-142.97;19.34
8451;BME280;4262;50.980;13.892;2023-03-01T09:28:45;50064.59;;;-142.97;19.44
8451;BME280;4262;50.980;13.892;2023-03-01T09:31:12;50050.94;;;-142.97;19.80
8451;BME280;4262;50.980;13.892;2023-03-01T09:33:40;50041.19;;;-142.97;19.82
8451;BME280;4262;50.980;13.892;2023-03-01T09:36:09;50025.59;;;-142.97;19.99
8451;BME280;4262;50.980;13.892;2023-03-01T09:38:37;50056.78;;;-142.97;19.48
8451;BME280;4262;50.980;13.892;2023-03-01T09:41:14;50066.53;;;-142.97;19.09
8451;BME280;4262;50.980;13.892;2023-03-01T09:43:49;50049.00;;;-142.97;19.33
8451;BME280;4262;50.980;13.892;2023-03-01T09:46:22;50076.28;;;-142.97;18.94
8451;BME280;4262;50.980;13.892;2023-03-01T09:48:52;50047.03;;;-142.97;19.17
8451;BME280;4262;50.980;13.892;2023-03-01T09:51:26;50017.81;;;-142.97;19.12
8451;BME280;4262;50.980;13.892;2023-03-01T09:53:53;50033.41;;;-142.97;18.83
8451;BME280;4262;50.980;13.892;2023-03-01T09:56:29;50041.19;;;-142.97;19.11
8451;BME280;4262;50.980;13.892;2023-03-01T09:59:04;50039.25;;;-142.97;19.27
8451;BME280;4262;50.980;13.892;2023-03-01T10:01:38;50045.09;;;-142.97;19.55
8451;BME280;4262;50.980;13.892;2023-03-01T10:04:24;50045.09;;;-142.97;19.00
8451;BME280;4262;50.980;13.892;2023-03-01T10:07:04;50025.59;;;-142.97;18.83
8451;BME280;4262;50.980;13.892;2023-03-01T10:09:34;50027.56;;;-142.97;19.31
8451;BME280;4262;50.980;13.892;2023-03-01T10:12:08;50056.78;;;-142.97;18.69
8451;BME280;4262;50.980;13.892;2023-03-01T10:14:41;50025.59;;;-142.97;18.66
8451;BME280;4262;50.980;13.892;2023-03-01T10:17:19;50043.16;;;-142.97;19.05
8451;BME280;4262;50.980;13.892;2023-03-01T10:19:50;50021.69;;;-142.97;18.93
8451;BME280;4262;50.980;13.892;2023-03-01T10:22:20;50008.06;;;-142.97;19.10
8451;BME280;4262;50.980;13.892;2023-03-01T10:24:50;50043.16;;;-142.97;19.09
8451;BME280;4262;50.980;13.892;2023-03-01T10:27:22;50058.75;;;-142.97;18.17
8451;BME280;4262;50.980;13.892;2023-03-01T10:29:57;50015.84;;;-142.97;17.77
8451;BME280;4262;50.980;13.892;2023-03-01T10:32:28;50045.09;;;-142.97;18.55
8451;BME280;4262;50.980;13.892;2023-03-01T10:34:55;50033.41;;;-142.97;18.74
8451;BME280;4262;50.980;13.892;2023-03-01T10:37:22;50045.09;;;-142.97;18.22
8451;BME280;4262;50.980;13.892;2023-03-01T10:39:56;50008.06;;;-142.97;17.95
8451;BME280;4262;50.980;13.892;2023-03-01T10:42:28;50039.25;;;-142.97;18.78
8451;BME280;4262;50.980;13.892;2023-03-01T10:44:57;50039.25;;;-142.97;18.97
8451;BME280;4262;50.980;13.892;2023-03-01T10:47:26;50056.78;;;-142.97;19.89
8451;BME280;4262;50.980;13.892;2023-03-01T10:49:57;50010.00;;;-142.97;19.40
8451;BME280;4262;50.980;13.892;2023-03-01T10:52:28;50064.59;;;-142.97;19.20
8451;BME280;4262;50.980;13.892;2023-03-01T10:54:58;50041.19;;;-142.97;18.47
8451;BME280;4262;50.980;13.892;2023-03-01T10:57:36;50045.09;;;-142.97;18.48
8451;BME280;4262;50.980;13.892;2023-03-01T11:00:21;50010.00;;;-142.97;18.25
8451;BME280;4262;50.980;13.892;2023-03-01T11:02:51;50013.91;;;-142.97;18.57
8451;BME280;4262;50.980;13.892;2023-03-01T11:05:28;50015.84;;;-142.97;18.95
8451;BME280;4262;50.980;13.892;2023-03-01T11:07:57;50027.56;;;-142.97;18.29
8451;BME280;4262;50.980;13.892;2023-03-01T11:10:26;50019.75;;;-142.97;19.03
8451;BME280;4262;50.980;13.892;2023-03-01T11:13:06;50021.69;;;-142.97;18.51
8451;BME280;4262;50.980;13.892;2023-03-01T11:15:34;50037.31;;;-142.97;18.22
8451;BME280;4262;50.980;13.892;2023-03-01T11:18:03;50029.50;;;-142.97;17.92
8451;BME280;4262;50.980;13.892;2023-03-01T11:20:32;50041.19;;;-142.97;18.32
8451;BME280;4262;50.980;13.892;2023-03-01T11:23:04;50011.97;;;-142.97;18.32
8451;BME280;4262;50.980;13.892;2023-03-01T11:25:36;50019.75;;;-142.97;17.67
8451;BME280;4262;50.980;13.892;2023-03-01T11:28:07;50004.16;;;-142.97;17.73
8451;BME280;4262;50.980;13.892;2023-03-01T11:30:40;50025.59;;;-142.97;17.70
8451;BME280;4262;50.980;13.892;2023-03-01T11:33:17;49996.34;;;-142.97;17.75
8451;BME280;4262;50.980;13.892;2023-03-01T11:35:53;50008.06;;;-142.97;18.00
8451;BME280;4262;50.980;13.892;2023-03-01T11:38:25;50010.00;;;-142.97;17.59
8451;BME280;4262;50.980;13.892;2023-03-01T11:40:55;50033.41;;;-142.97;17.66
8451;BME280;4262;50.980;13.892;2023-03-01T11:43:33;50041.19;;;-142.97;17.71
8451;BME280;4262;50.980;13.892;2023-03-01T11:46:46;50025.59;;;-142.97;18.11
8451;BME280;4262;50.980;13.892;2023-03-01T11:49:50;50027.56;;;-142.97;18.91
8451;BME280;4262;50.980;13.892;2023-03-01T11:52:28;50021.69;;;-142.97;18.71
8451;BME280;4262;50.980;13.892;2023-03-01T11:55:17;50031.44;;;-142.97;18.68
8451;BME280;4262;50.980;13.892;2023-03-01T11:57:59;50035.34;;;-142.97;18.61
8451;BME280;4262;50.980;13.892;2023-03-01T12:00:47;50052.91;;;-142.97;18.40
8451;BME280;4262;50.980;13.892;2023-03-01T12:03:27;50010.00;;;-142.97;18.54
8451;BME280;4262;50.980;13.892;2023-03-01T12:06:09;50011.97;;;-142.97;18.40
8451;BME280;4262;50.980;13.892;2023-03-01T12:08:41;50019.75;;;-142.97;18.29
8451;BME280;4262;50.980;13.892;2023-03-01T12:11:19;50052.91;;;-142.97;17.73
8451;BME280;4262;50.980;13.892;2023-03-01T12:14:02;50011.97;;;-142.97;18.53
8451;BME280;4262;50.980;13.892;2023-03-01T12:16:56;50056.78;;;-142.97;18.18
8451;BME280;4262;50.980;13.892;2023-03-01T12:19:38;50043.16;;;-142.97;18.71
8451;BME280;4262;50.980;13.892;2023-03-01T12:22:20;50029.50;;;-142.97;18.26
8451;BME280;4262;50.980;13.892;2023-03-01T12:24:59;50031.44;;;-142.97;18.61
8451;BME280;4262;50.980;13.892;2023-03-01T12:27:46;50010.00;;;-142.97;18.78
8451;BME280;4262;50.980;13.892;2023-03-01T12:30:25;50033.41;;;-142.97;19.16
8451;BME280;4262;50.980;13.892;2023-03-01T12:33:05;50052.91;;;-142.97;20.03
8451;BME280;4262;50.980;13.892;2023-03-01T12:35:46;50027.56;;;-142.97;19.75
8451;BME280;4262;50.980;13.892;2023-03-01T12:38:36;50033.41;;;-142.97;19.55
8451;BME280;4262;50.980;13.892;2023-03-01T12:41:40;50070.44;;;-142.97;19.49
8451;BME280;4262;50.980;13.892;2023-03-01T12:44:20;50041.19;;;-142.97;19.29
8451;BME280;4262;50.980;13.892;2023-03-01T12:47:01;50037.31;;;-142.97;19.64
8451;BME280;4262;50.980;13.892;2023-03-01T12:49:33;50045.09;;;-142.97;19.78
8451;BME280;4262;50.980;13.892;2023-03-01T12:52:03;50052.91;;;-142.97;19.67
8451;BME280;4262;50.980;13.892;2023-03-01T12:54:36;50037.31;;;-142.97;19.86
8451;BME280;4262;50.980;13.892;2023-03-01T12:57:12;50050.94;;;-142.97;19.46
8451;BME280;4262;50.980;13.892;2023-03-01T12:59:46;50031.44;;;-142.97;19.75
8451;BME280;4262;50.980;13.892;2023-03-01T13:02:23;50039.25;;;-142.97;19.77
8451;BME280;4262;50.980;13.892;2023-03-01T13:05:02;50037.31;;;-142.97;19.58
8451;BME280;4262;50.980;13.892;2023-03-01T13:07:35;50076.28;;;-142.97;19.32
8451;BME280;4262;50.980;13.892;2023-03-01T13:10:17;50049.00;;;-142.97;19.56
8451;BME280;4262;50.980;13.892;2023-03-01T13:12:50;50037.31;;;-142.97;19.80
8451;BME280;4262;50.980;13.892;2023-03-01T13:15:28;50076.28;;;-142.97;19.41
8451;BME280;4262;50.980;13.892;2023-03-01T13:17:59;50064.59;;;-142.97;19.58
8451;BME280;4262;50.980;13.892;2023-03-01T13:20:31;50084.09;;;-142.97;19.84
8451;BME280;4262;50.980;13.892;2023-03-01T13:23:07;50056.78;;;-142.97;19.34
8451;BME280;4262;50.980;13.892;2023-03-01T13:28:51;50082.13;;;-142.97;18.90
8451;BME280;4262;50.980;13.892;2023-03-01T13:34:47;50084.09;;;-142.97;18.89
8451;BME280;4262;50.980;13.892;2023-03-01T13:37:30;50078.25;;;-142.97;18.70
8451;BME280;4262;50.980;13.892;2023-03-01T13:40:00;50086.03;;;-142.97;19.30
8451;BME280;4262;50.980;13.892;2023-03-01T13:42:39;50064.59;;;-142.97;18.61
8451;BME280;4262;50.980;13.892;2023-03-01T13:45:17;50047.03;;;-142.97;18.92
8451;BME280;4262;50.980;13.892;2023-03-01T13:47:47;50078.25;;;-142.97;18.47
8451;BME280;4262;50.980;13.892;2023-03-01T13:50:18;50088.00;;;-142.97;19.41
8451;BME280;4262;50.980;13.892;2023-03-01T13:52:50;50076.28;;;-142.97;19.63
8451;BME280;4262;50.980;13.892;2023-03-01T13:55:22;50093.84;;;-142.97;19.38
8451;BME280;4262;50.980;13.892;2023-03-01T13:57:54;50088.00;;;-142.97;19.67
8451;BME280;4262;50.980;13.892;2023-03-01T14:00:34;50086.03;;;-142.97;19.85
8451;BME280;4262;50.980;13.892;2023-03-01T14:03:09;50113.34;;;-142.97;19.76
8451;BME280;4262;50.980;13.892;2023-03-01T14:05:37;50068.50;;;-142.97;19.53
8451;BME280;4262;50.980;13.892;2023-03-01T14:08:18;50084.09;;;-142.97;19.17
8451;BME280;4262;50.980;13.892;2023-03-01T14:10:54;50111.38;;;-142.97;19.60
8451;BME280;4262;50.980;13.892;2023-03-01T14:13:32;50101.63;;;-142.97;19.60
8451;BME280;4262;50.980;13.892;2023-03-01T14:16:16;50103.59;;;-142.97;19.00
8451;BME280;4262;50.980;13.892;2023-03-01T14:18:52;50134.78;;;-142.97;19.01
8451;BME280;4262;50.980;13.892;2023-03-01T14:21:22;50113.34;;;-142.97;19.81
8451;BME280;4262;50.980;13.892;2023-03-01T14:23:53;50095.78;;;-142.97;19.77
8451;BME280;4262;50.980;13.892;2023-03-01T14:26:20;50123.06;;;-142.97;19.32
8451;BME280;4262;50.980;13.892;2023-03-01T14:28:48;50115.28;;;-142.97;18.86
8451;BME280;4262;50.980;13.892;2023-03-01T14:31:36;50126.97;;;-142.97;19.53
8451;BME280;4262;50.980;13.892;2023-03-01T14:34:03;50117.22;;;-142.97;19.63
8451;BME280;4262;50.980;13.892;2023-03-01T14:36:31;50148.41;;;-142.97;19.98
8451;BME280;4262;50.980;13.892;2023-03-01T14:39:00;50125.03;;;-142.97;19.79
8451;BME280;4262;50.980;13.892;2023-03-01T14:41:33;50123.06;;;-142.97;19.78
8451;BME280;4262;50.980;13.892;2023-03-01T14:44:05;50130.88;;;-142.97;19.84
8451;BME280;4262;50.980;13.892;2023-03-01T14:46:36;50152.31;;;-142.97;19.41
8451;BME280;4262;50.980;13.892;2023-03-01T14:49:05;50167.91;;;-142.97;19.35
8451;BME280;4262;50.980;13.892;2023-03-01T14:51:36;50156.22;;;-142.97;19.38
8451;BME280;4262;50.980;13.892;2023-03-01T14:54:20;50154.28;;;-142.97;19.58
8451;BME280;4262;50.980;13.892;2023-03-01T14:56:47;50152.31;;;-142.97;19.77
8451;BME280;4262;50.980;13.892;2023-03-01T14:59:13;50158.16;;;-142.97;20.15
8451;BME280;4262;50.980;13.892;2023-03-01T15:01:42;50154.28;;;-142.97;20.06
8451;BME280;4262;50.980;13.892;2023-03-01T15:04:12;50165.97;;;-142.97;19.82
8451;BME280;4262;50.980;13.892;2023-03-01T15:06:40;50169.88;;;-142.97;19.83
8451;BME280;4262;50.980;13.892;2023-03-01T15:09:14;50165.97;;;-142.97;20.21
8451;BME280;4262;50.980;13.892;2023-03-01T15:11:42;50160.13;;;-142.97;20.25
8451;BME280;4262;50.980;13.892;2023-03-01T15:14:39;50204.97;;;-142.97;20.53
8451;BME280;4262;50.980;13.892;2023-03-01T15:17:20;50165.97;;;-142.97;20.35
8451;BME280;4262;50.980;13.892;2023-03-01T15:19:50;50185.47;;;-142.97;20.43
8451;BME280;4262;50.980;13.892;2023-03-01T15:22:16;50144.53;;;-142.97;20.72
8451;BME280;4262;50.980;13.892;2023-03-01T15:24:48;50185.47;;;-142.97;20.71
8451;BME280;4262;50.980;13.892;2023-03-01T15:27:17;50179.63;;;-142.97;20.26
8451;BME280;4262;50.980;13.892;2023-03-01T15:29:49;50185.47;;;-142.97;20.17
8451;BME280;4262;50.980;13.892;2023-03-01T15:32:28;50245.91;;;-142.97;20.45
8451;BME280;4262;50.980;13.892;2023-03-01T15:34:56;50255.66;;;-142.97;20.72
8451;BME280;4262;50.980;13.892;2023-03-01T15:37:39;50240.06;;;-142.97;20.81
8451;BME280;4262;50.980;13.892;2023-03-01T15:40:20;50238.09;;;-142.97;20.42
8451;BME280;4262;50.980;13.892;2023-03-01T15:42:50;50245.91;;;-142.97;20.18
8451;BME280;4262;50.980;13.892;2023-03-01T15:45:23;50261.50;;;-142.97;20.09
8451;BME280;4262;50.980;13.892;2023-03-01T15:47:53;50247.84;;;-142.97;20.14
8451;BME280;4262;50.980;13.892;2023-03-01T15:50:25;50271.25;;;-142.97;20.06
8451;BME280;4262;50.980;13.892;2023-03-01T15:52:53;50277.09;;;-142.97;20.13
8451;BME280;4262;50.980;13.892;2023-03-01T15:55:24;50240.06;;;-142.97;20.48
8451;BME280;4262;50.980;13.892;2023-03-01T15:57:59;50228.34;;;-142.97;20.52
8451;BME280;4262;50.980;13.892;2023-03-01T16:00:27;50228.34;;;-142.97;20.13
8451;BME280;4262;50.980;13.892;2023-03-01T16:02:54;50263.44;;;-142.97;20.09
8451;BME280;4262;50.980;13.892;2023-03-01T16:05:22;50257.59;;;-142.97;20.13
8451;BME280;4262;50.980;13.892;2023-03-01T16:07:50;50273.19;;;-142.97;20.14
8451;BME280;4262;50.980;13.892;2023-03-01T16:10:18;50220.56;;;-142.97;20.10
8451;BME280;4262;50.980;13.892;2023-03-01T16:12:46;50263.44;;;-142.97;20.12
8451;BME280;4262;50.980;13.892;2023-03-01T16:15:16;50257.59;;;-142.97;20.31
8451;BME280;4262;50.980;13.892;2023-03-01T16:17:44;50265.41;;;-142.97;19.91
8451;BME280;4262;50.980;13.892;2023-03-01T16:20:14;50255.66;;;-142.97;19.84
8451;BME280;4262;50.980;13.892;2023-03-01T16:22:41;50255.66;;;-142.97;20.17
8451;BME280;4262;50.980;13.892;2023-03-01T16:25:09;50234.19;;;-142.97;20.41
8451;BME280;4262;50.980;13.892;2023-03-01T16:27:36;50279.03;;;-142.97;20.47
8451;BME280;4262;50.980;13.892;2023-03-01T16:30:06;50282.94;;;-142.97;20.45
8451;BME280;4262;50.980;13.892;2023-03-01T16:32:33;50259.56;;;-142.97;20.45
8451;BME280;4262;50.980;13.892;2023-03-01T16:35:04;50245.91;;;-142.97;20.45
8451;BME280;4262;50.980;13.892;2023-03-01T16:37:33;50243.94;;;-142.97;20.56
8451;BME280;4262;50.980;13.892;2023-03-01T16:40:00;50279.03;;;-142.97;20.45
8451;BME280;4262;50.980;13.892;2023-03-01T16:42:26;50257.59;;;-142.97;20.76
8451;BME280;4262;50.980;13.892;2023-03-01T16:44:54;50271.25;;;-142.97;20.69
8451;BME280;4262;50.980;13.892;2023-03-01T16:47:22;50279.03;;;-142.97;20.61
8451;BME280;4262;50.980;13.892;2023-03-01T16:49:51;50253.69;;;-142.97;20.59
8451;BME280;4262;50.980;13.892;2023-03-01T16:52:18;50271.25;;;-142.97;20.70
8451;BME280;4262;50.980;13.892;2023-03-01T16:54:46;50263.44;;;-142.97;20.78
8451;BME280;4262;50.980;13.892;2023-03-01T16:57:13;50271.25;;;-142.97;20.59
8451;BME280;4262;50.980;13.892;2023-03-01T16:59:40;50255.66;;;-142.97;20.89
8451;BME280;4262;50.980;13.892;2023-03-01T17:02:10;50286.84;;;-142.97;21.03
8451;BME280;4262;50.980;13.892;2023-03-01T17:04:41;50259.56;;;-142.97;20.96
8451;BME280;4262;50.980;13.892;2023-03-01T17:07:07;50275.16;;;-142.97;20.93
8451;BME280;4262;50.980;13.892;2023-03-01T17:09:34;50253.69;;;-142.97;21.19
8451;BME280;4262;50.980;13.892;2023-03-01T17:12:02;50255.66;;;-142.97;21.44
8451;BME280;4262;50.980;13.892;2023-03-01T17:14:30;50255.66;;;-142.97;21.48
8451;BME280;4262;50.980;13.892;2023-03-01T17:16:59;50236.16;;;-142.97;21.37
8451;BME280;4262;50.980;13.892;2023-03-01T17:19:28;50271.25;;;-142.97;21.51
8451;BME280;4262;50.980;13.892;2023-03-01T17:21:56;50251.75;;;-142.97;21.63
8451;BME280;4262;50.980;13.892;2023-03-01T17:24:23;50269.28;;;-142.97;21.48
8451;BME280;4262;50.980;13.892;2023-03-01T17:26:49;50253.69;;;-142.97;21.49
8451;BME280;4262;50.980;13.892;2023-03-01T17:29:16;50236.16;;;-142.97;21.03
8451;BME280;4262;50.980;13.892;2023-03-01T17:31:45;50257.59;;;-142.97;21.39
8451;BME280;4262;50.980;13.892;2023-03-01T17:34:11;50247.84;;;-142.97;20.97
8451;BME280;4262;50.980;13.892;2023-03-01T17:36:38;50259.56;;;-142.97;21.34
8451;BME280;4262;50.980;13.892;2023-03-01T17:39:10;50245.91;;;-142.97;21.80
8451;BME280;4262;50.980;13.892;2023-03-01T17:41:36;50242.00;;;-142.97;21.61
8451;BME280;4262;50.980;13.892;2023-03-01T17:44:03;50255.66;;;-142.97;21.64
8451;BME280;4262;50.980;13.892;2023-03-01T17:46:32;50240.06;;;-142.97;21.61
8451;BME280;4262;50.980;13.892;2023-03-01T17:48:58;50240.06;;;-142.97;21.63